createdAt,value
2023-02-23T00:04:19.564Z,8.20
2023-02-23T00:09:35.538Z,6.80
2023-02-23T00:14:44.640Z,8.40
2023-02-23T00:19:52.982Z,7.90
2023-02-23T00:25:00.559Z,8.10
2023-02-23T00:30:12.378Z,7.10
2023-02-23T00:35:20.160Z,7.50
2023-02-23T00:40:27.854Z,8.50
2023-02-23T00:45:36.988Z,10.00
2023-02-23T00:50:44.425Z,8.90
2023-02-23T00:55:51.684Z,9.70
2023-02-23T01:01:00.244Z,9.60
2023-02-23T01:06:11.915Z,6.40
2023-02-23T01:11:22.735Z,7.40
2023-02-23T01:16:33.853Z,9.50
2023-02-23T01:21:43.514Z,8.40
2023-02-23T01:26:51.813Z,9.00
2023-02-23T01:31:59.145Z,8.50
2023-02-23T01:37:06.592Z,10.80
2023-02-23T01:47:22.313Z,9.20
2023-02-23T01:52:29.669Z,9.50
2023-02-23T02:02:43.289Z,9.10
2023-02-23T02:07:59.311Z,10.20
2023-02-23T02:13:08.107Z,8.50
2023-02-23T02:18:24.210Z,9.80
2023-02-23T02:23:53.740Z,9.90
2023-02-23T02:29:39.530Z,9.90
2023-02-23T02:35:25.113Z,9.70
2023-02-23T02:40:38.982Z,9.60
2023-02-23T02:45:53.459Z,10.90
2023-02-23T02:51:09.505Z,8.50
2023-02-23T02:56:21.261Z,9.80
2023-02-23T03:01:45.968Z,8.80
2023-02-23T03:07:17.729Z,8.40
2023-02-23T03:12:52.584Z,9.50
2023-02-23T03:18:28.454Z,9.90
2023-02-23T03:28:36.440Z,9.90
2023-02-23T03:34:10.569Z,10.20
2023-02-23T03:39:41.776Z,11.40
2023-02-23T03:45:10.228Z,7.80
2023-02-23T03:50:44.892Z,7.50
2023-02-23T03:56:16.363Z,9.00
2023-02-23T04:13:06.118Z,10.10
2023-02-23T04:18:17.705Z,10.50
2023-02-23T04:23:26.401Z,8.70
2023-02-23T04:28:35.078Z,9.40
2023-02-23T04:33:42.422Z,8.70
2023-02-23T04:38:50.040Z,9.90
2023-02-23T04:43:57.736Z,7.80
2023-02-23T04:49:05.208Z,8.70
2023-02-23T04:54:12.505Z,8.80
2023-02-23T04:59:20.495Z,8.00
2023-02-23T05:04:27.862Z,9.70
2023-02-23T05:14:40.972Z,8.90
2023-02-23T05:29:00.206Z,9.00
2023-02-23T05:34:08.066Z,8.50
2023-02-23T05:39:16.171Z,8.90
2023-02-23T05:44:23.878Z,8.80
2023-02-23T05:49:31.666Z,8.30
2023-02-23T05:54:39.643Z,9.70
2023-02-23T05:59:47.033Z,9.00
2023-02-23T06:04:56.219Z,7.90
2023-02-23T06:10:04.422Z,9.00
2023-02-23T06:15:13.746Z,9.30
2023-02-23T06:20:22.139Z,9.80
2023-02-23T06:25:30.475Z,8.70
2023-02-23T06:30:38.825Z,8.20
2023-02-23T06:35:47.019Z,9.70
2023-02-23T06:40:55.221Z,9.70
2023-02-23T06:46:02.910Z,10.60
2023-02-23T06:51:11.203Z,10.00
2023-02-23T06:56:19.911Z,10.30
2023-02-23T07:01:27.688Z,10.90
2023-02-23T07:06:35.267Z,10.40
2023-02-23T07:11:45.010Z,9.20
2023-02-23T07:16:52.871Z,9.10
2023-02-23T07:22:00.774Z,8.50
2023-02-23T07:27:08.398Z,11.20
2023-02-23T07:32:15.971Z,13.30
2023-02-23T07:37:23.921Z,12.70
2023-02-23T07:42:32.109Z,12.20
2023-02-23T07:47:40.197Z,11.40
2023-02-23T07:52:48.456Z,9.90
2023-02-23T07:57:58.750Z,11.20
2023-02-23T08:03:06.985Z,9.80
2023-02-23T08:08:15.125Z,10.40
2023-02-23T08:13:23.175Z,13.70
2023-02-23T08:28:13.581Z,12.80
2023-02-23T08:33:21.369Z,13.40
2023-02-23T08:38:29.384Z,11.80
2023-02-23T08:43:39.557Z,12.10
2023-02-23T08:48:47.640Z,12.60
2023-02-23T08:53:57.637Z,11.30
2023-02-23T08:59:06.171Z,13.10
2023-02-23T09:04:13.805Z,14.60
2023-02-23T09:09:22.117Z,15.40
2023-02-23T09:14:30.425Z,14.70
2023-02-23T09:19:38.581Z,14.20
2023-02-23T09:24:46.893Z,16.10
2023-02-23T09:29:54.420Z,14.60
2023-02-23T09:35:01.926Z,16.60
2023-02-23T09:40:15.782Z,16.80
2023-02-23T09:45:40.220Z,14.90
2023-02-23T09:50:52.537Z,16.00
2023-02-23T09:56:01.706Z,14.50
2023-02-23T10:01:35.456Z,15.40
2023-02-23T10:06:47.728Z,16.20
2023-02-23T10:12:02.296Z,16.30
2023-02-23T10:17:22.596Z,11.90
2023-02-23T10:22:34.066Z,13.30
2023-02-23T10:27:46.879Z,13.30
2023-02-23T10:33:01.114Z,15.00
2023-02-23T10:38:14.292Z,14.00
2023-02-23T10:43:23.667Z,17.20
2023-02-23T10:48:39.086Z,13.50
2023-02-23T10:53:47.081Z,15.20
2023-02-23T10:58:56.945Z,18.40
2023-02-23T11:04:18.011Z,17.20
2023-02-23T11:09:44.505Z,17.20
2023-02-23T11:14:57.194Z,18.10
2023-02-23T11:20:09.081Z,18.30
2023-02-23T11:28:31.499Z,18.00
2023-02-23T11:33:42.436Z,17.20
2023-02-23T11:38:58.626Z,16.10
2023-02-23T11:44:06.835Z,15.10
2023-02-23T11:49:21.728Z,16.60
2023-02-23T11:54:33.547Z,19.60
2023-02-23T11:59:48.034Z,18.70
2023-02-23T12:05:08.163Z,20.00
2023-02-23T12:10:25.428Z,19.30
2023-02-23T12:20:50.408Z,19.90
2023-02-23T12:26:04.431Z,17.30
2023-02-23T12:31:24.024Z,15.30
2023-02-23T12:36:42.854Z,17.30
2023-02-23T12:42:01.471Z,16.30
2023-02-23T12:47:17.723Z,15.60
2023-02-23T12:52:31.729Z,14.40
2023-02-23T12:57:45.208Z,204.80
2023-02-23T13:03:10.208Z,12.90
2023-02-23T13:08:28.740Z,19.20
2023-02-23T13:13:43.588Z,17.60
2023-02-23T13:19:01.333Z,18.20
2023-02-23T13:24:14.768Z,18.90
2023-02-23T13:29:32.508Z,19.00
2023-02-23T13:34:47.419Z,21.30
2023-02-23T13:40:03.147Z,20.10
2023-02-23T13:45:33.250Z,19.00
2023-02-23T13:50:53.185Z,20.00
2023-02-23T13:56:07.026Z,17.10
2023-02-23T14:01:19.379Z,18.40
2023-02-23T14:06:30.151Z,19.60
2023-02-23T14:11:49.386Z,17.20
2023-02-23T14:17:34.249Z,17.50
2023-02-23T14:23:18.729Z,17.80
2023-02-23T14:28:39.413Z,15.80
2023-02-23T14:34:02.409Z,11.70
2023-02-23T14:39:17.784Z,14.40
2023-02-23T14:44:31.649Z,17.60
2023-02-23T14:49:44.897Z,18.60
2023-02-23T14:54:52.992Z,16.80
2023-02-23T15:00:05.867Z,18.20
2023-02-23T15:05:23.094Z,18.10
2023-02-23T15:10:34.682Z,16.30
2023-02-23T15:15:47.810Z,17.70
2023-02-23T15:20:55.392Z,18.50
2023-02-23T15:26:24.112Z,16.80
2023-02-23T15:31:35.013Z,16.60
2023-02-23T15:36:47.527Z,16.90
2023-02-23T15:41:55.235Z,16.40
2023-02-23T15:47:06.715Z,14.00
2023-02-23T15:52:19.812Z,15.70
2023-02-23T15:57:34.373Z,15.60
2023-02-23T16:02:45.128Z,16.70
2023-02-23T16:08:06.505Z,17.80
2023-02-23T16:13:16.441Z,16.10
2023-02-23T16:18:33.155Z,15.90
2023-02-23T16:28:55.232Z,19.40
2023-02-23T16:34:01.414Z,19.90
2023-02-23T16:39:11.000Z,19.60
2023-02-23T16:44:20.228Z,18.90
2023-02-23T16:49:29.473Z,18.70
2023-02-23T16:54:34.035Z,20.80
2023-02-23T16:59:38.223Z,20.30
2023-02-23T17:04:48.391Z,20.60
2023-02-23T17:09:52.419Z,19.60
2023-02-23T17:14:57.736Z,19.20
2023-02-23T17:20:01.828Z,19.00
2023-02-23T17:25:07.605Z,19.60
2023-02-23T17:30:14.575Z,16.70
2023-02-23T17:35:19.190Z,18.30
2023-02-23T17:40:28.467Z,20.00
2023-02-23T17:45:33.360Z,21.80
2023-02-23T17:50:37.531Z,20.90
2023-02-23T17:55:42.342Z,19.80
2023-02-23T18:00:48.120Z,21.90
2023-02-23T18:05:52.652Z,20.40
2023-02-23T18:10:58.127Z,19.50
2023-02-23T18:16:05.463Z,21.00
2023-02-23T18:21:13.499Z,19.60
2023-02-23T18:26:20.406Z,21.00
2023-02-23T18:31:27.898Z,24.00
2023-02-23T18:36:35.556Z,28.80
2023-02-23T18:41:41.532Z,25.50
2023-02-23T18:46:46.743Z,26.40
2023-02-23T18:51:51.252Z,27.50
2023-02-23T18:56:55.651Z,29.00
2023-02-23T19:02:00.154Z,26.70
2023-02-23T19:07:05.341Z,28.60
2023-02-23T19:12:11.571Z,31.50
2023-02-23T19:17:16.057Z,37.60
2023-02-23T19:22:20.730Z,41.20
2023-02-23T19:27:25.026Z,45.10
2023-02-23T19:32:29.955Z,41.90
2023-02-23T19:37:34.304Z,43.20
2023-02-23T19:42:42.603Z,36.40
2023-02-23T19:47:47.509Z,41.80
2023-02-23T19:52:51.361Z,44.90
2023-02-23T19:57:55.549Z,52.10
2023-02-23T20:03:05.718Z,54.30
2023-02-23T20:08:10.186Z,47.70
2023-02-23T20:13:14.092Z,52.60
2023-02-23T20:18:20.511Z,39.20
2023-02-23T20:29:11.365Z,46.20
2023-02-23T20:34:22.199Z,54.20
2023-02-23T20:39:32.898Z,55.10
2023-02-23T20:44:40.589Z,46.50
2023-02-23T20:49:48.163Z,52.20
2023-02-23T20:54:55.415Z,53.30
2023-02-23T21:00:29.006Z,51.50
2023-02-23T21:05:42.365Z,53.80
2023-02-23T21:10:50.832Z,57.70
2023-02-23T21:16:01.686Z,59.20
2023-02-23T21:21:10.993Z,48.60
2023-02-23T21:26:21.931Z,55.70
2023-02-23T21:31:30.266Z,58.60
2023-02-23T21:36:38.902Z,58.70
2023-02-23T21:41:46.777Z,57.60
2023-02-23T21:46:54.488Z,58.60
2023-02-23T21:52:02.416Z,58.10
2023-02-23T21:57:11.250Z,57.80
2023-02-23T22:02:20.214Z,67.50
2023-02-23T22:07:29.507Z,53.40
2023-02-23T22:12:37.392Z,59.80
2023-02-23T22:17:45.722Z,58.20
2023-02-23T22:22:53.598Z,55.50
2023-02-23T22:28:02.187Z,50.40
2023-02-23T22:33:10.283Z,57.40
2023-02-23T22:38:19.904Z,54.10
2023-02-23T22:43:27.510Z,45.60
2023-02-23T22:48:35.410Z,44.90
2023-02-23T22:53:43.656Z,46.00
2023-02-23T22:58:53.820Z,45.60
2023-02-23T23:04:06.683Z,43.00
2023-02-23T23:09:16.813Z,46.00
2023-02-23T23:14:24.791Z,43.20
2023-02-23T23:19:39.219Z,41.20
2023-02-23T23:24:49.286Z,44.30
2023-02-23T23:29:59.641Z,45.30
2023-02-23T23:35:11.714Z,41.50
2023-02-23T23:40:24.799Z,45.30
2023-02-23T23:45:38.418Z,35.60
2023-02-23T23:50:46.261Z,38.60
2023-02-23T23:55:53.943Z,42.30
